This is the latest recevied weather packets stored in our database for station/object W2SBL-1. If no packets are shown the sender has not sent any weather packets the latest 10 day(s).
| Time | Temp. | Humidity | Pressure | Rain* | Wind** | Luminosity | Snow |
|---|---|---|---|---|---|---|---|
| 1777972346 | 14.44° C | 46% | 1010.5 hPa | - | - | - | - |
| 1777971446 | 14.44° C | 46% | 1010.3 hPa | - | - | - | - |
| 1777970546 | 14.44° C | 46% | 1010.4 hPa | - | - | - | - |
| 1777969646 | 14.44° C | 46% | 1010.6 hPa | - | - | - | - |
| 1777968746 | 14.44° C | 46% | 1010.6 hPa | - | - | - | - |
| 1777967846 | 14.44° C | 46% | 1010.7 hPa | - | - | - | - |
| 1777966945 | 14.44° C | 46% | 1010.7 hPa | - | - | - | - |
| 1777966046 | 14.44° C | 46% | 1010.7 hPa | - | - | - | - |
| 1777964245 | 8.89° C | 45% | 1001.5 hPa | - | - | - | - |
| 1777962445 | 15° C | 46% | 1010.7 hPa | - | - | - | - |
| 1777961545 | 15° C | 45% | 1010.9 hPa | - | - | - | - |
| 1777960645 | 15° C | 46% | 1011 hPa | - | - | - | - |
| 1777959745 | 15° C | 46% | 1011.1 hPa | - | - | - | - |
| 1777958845 | 15° C | 45% | 1011 hPa | - | - | - | - |
| 1777957945 | 15° C | 46% | 1011.1 hPa | - | - | - | - |
| 1777957045 | 15° C | 45% | 1011.2 hPa | - | - | - | - |
| 1777956144 | 15° C | 45% | 1011.4 hPa | - | - | - | - |
| 1777955244 | 15° C | 45% | 1011.4 hPa | - | - | - | - |
| 1777954344 | 15° C | 45% | 1011.5 hPa | - | - | - | - |
| 1777953444 | 15.56° C | 45% | 1011.5 hPa | - | - | - | - |
| 1777952544 | 13.33° C | 45% | 1007.4 hPa | - | - | - | - |
| 1777951644 | 15.56° C | 44% | 1011.3 hPa | - | - | - | - |
| 1777950744 | 15.56° C | 44% | 1011.4 hPa | - | - | - | - |
| 1777949844 | 15.56° C | 44% | 1011.4 hPa | - | - | - | - |
| 1777948944 | 15.56° C | 44% | 1011.6 hPa | - | - | - | - |
* Rain since midnight (hover to see other rain measurements)
** Current wind speed in m/s (hover to see current wind gust speed)